Time;durP1;ratioP1;P1;durP2;ratioP2;P2;SDS_P1;SDS_P2;PMS_P1;PMS_P2;Temp;Humidity;BMP_temperature;BMP_pressure;BME280_temperature;BME280_humidity;BME280_pressure;Samples;Min_cycle;Max_cycle;Signal;HPM_P1;HPM_P2
2023/07/15 00:02:20;;;;;;;4.07;2.03;;;;;;;24.29;38.69;99479.44;10336546;28;20077;-48
2023/07/15 00:07:21;;;;;;;2.78;2.17;;;;;;;24.24;38.93;99471.13;10328060;28;20050;-48
2023/07/15 00:12:22;;;;;;;2.92;1.80;;;;;;;24.18;38.88;99477.50;10336455;28;20508;-47
2023/07/15 00:17:24;;;;;;;3.75;2.10;;;;;;;24.19;39.03;99476.44;10334790;28;20116;-48
2023/07/15 00:22:25;;;;;;;2.58;2.08;;;;;;;24.15;39.50;99472.53;10337052;28;20088;-48
2023/07/15 00:27:27;;;;;;;3.40;2.25;;;;;;;24.12;39.31;99478.44;10338253;28;20188;-48
2023/07/15 00:32:28;;;;;;;3.05;1.90;;;;;;;24.09;39.31;99478.91;10338292;28;20712;-48
2023/07/15 00:37:30;;;;;;;3.95;1.80;;;;;;;24.04;39.80;99470.63;10341519;28;20045;-48
2023/07/15 00:42:50;;;;;;;3.65;2.17;;;;;;;24.00;39.88;99476.50;10331579;28;20474;-48
2023/07/15 00:48:23;;;;;;;2.83;1.67;;;;;;;23.94;40.14;99477.41;10330544;28;20884;-47
2023/07/15 00:53:24;;;;;;;4.80;2.40;;;;;;;23.90;39.27;99486.25;10336514;28;20073;-48
2023/07/15 00:58:26;;;;;;;2.40;1.88;;;;;;;23.83;39.54;99480.91;10333336;28;20380;-48
2023/07/15 01:03:27;;;;;;;3.28;2.15;;;;;;;23.79;40.08;99483.22;10338535;28;20045;-47
2023/07/15 01:08:29;;;;;;;3.08;1.75;;;;;;;23.77;40.54;99479.09;10331734;28;20054;-48
2023/07/15 01:13:30;;;;;;;4.43;2.42;;;;;;;23.74;40.37;99485.81;10335193;28;20393;-47
2023/07/15 01:18:32;;;;;;;2.25;1.70;;;;;;;23.69;40.93;99480.25;10336477;28;20061;-48
2023/07/15 01:23:33;;;;;;;4.95;2.20;;;;;;;23.64;40.77;99477.38;10331743;28;20081;-48
2023/07/15 01:28:36;;;;;;;3.67;1.98;;;;;;;23.60;41.28;99482.44;10333482;28;20049;-47
2023/07/15 01:33:38;;;;;;;;;;;;;;;23.45;41.48;99452.13;10327616;28;20177;-47
2023/07/15 01:38:41;;;;;;;3.35;2.08;;;;;;;23.47;41.33;99466.31;10322272;28;19983;-47
2023/07/15 01:43:42;;;;;;;3.85;2.10;;;;;;;23.55;41.25;99478.75;10329375;28;20052;-47
2023/07/15 01:48:44;;;;;;;2.50;1.95;;;;;;;23.52;41.48;99477.31;10330992;28;20100;-48
2023/07/15 01:53:45;;;;;;;4.57;1.88;;;;;;;23.46;41.32;99470.91;10329176;28;20772;-48
2023/07/15 01:58:48;;;;;;;4.10;2.30;;;;;;;23.45;41.77;99468.44;10329096;28;20563;-47
2023/07/15 02:03:50;;;;;;;3.83;2.27;;;;;;;23.43;41.78;99459.66;10332486;28;20124;-47
2023/07/15 02:08:52;;;;;;;3.47;2.03;;;;;;;23.40;41.68;99457.41;10330335;28;20053;-48
2023/07/15 02:13:53;;;;;;;5.75;2.65;;;;;;;23.37;41.97;99447.81;10326501;28;20062;-47
2023/07/15 02:18:55;;;;;;;6.40;2.80;;;;;;;23.34;42.15;99453.69;10326964;28;20049;-49
2023/07/15 02:23:59;;;;;;;3.28;2.38;;;;;;;23.30;42.13;99450.63;10331642;28;20080;-48
2023/07/15 02:29:00;;;;;;;3.22;2.45;;;;;;;23.24;42.69;99451.53;10325093;28;20059;-48
2023/07/15 02:34:02;;;;;;;4.88;2.92;;;;;;;23.17;42.58;99442.63;10325303;28;20061;-52
2023/07/15 02:39:06;;;;;;;4.55;2.30;;;;;;;23.11;42.95;99440.81;10327181;28;20579;-48
2023/07/15 02:44:07;;;;;;;3.25;2.20;;;;;;;23.05;43.17;99436.25;10330415;28;20550;-52
2023/07/15 02:49:09;;;;;;;5.15;2.70;;;;;;;22.99;43.30;99418.16;10322896;28;20058;-48
2023/07/15 02:54:11;;;;;;;2.72;2.53;;;;;;;22.94;44.00;99422.38;10326284;28;20046;-48
2023/07/15 02:59:12;;;;;;;7.88;3.03;;;;;;;22.90;44.63;99439.34;10327057;28;20058;-48
2023/07/15 03:04:14;;;;;;;3.92;2.88;;;;;;;22.86;44.34;99441.66;10320207;28;20463;-48
2023/07/15 03:09:15;;;;;;;5.45;2.92;;;;;;;22.79;44.50;99438.19;10320594;28;20069;-48
2023/07/15 03:14:17;;;;;;;4.40;3.25;;;;;;;22.73;44.49;99423.63;10316521;28;20915;-46
2023/07/15 03:19:18;;;;;;;3.22;2.80;;;;;;;22.69;44.82;99433.25;10333138;28;20950;-47
2023/07/15 03:24:23;;;;;;;4.60;3.20;;;;;;;22.71;44.78;99435.75;10321581;28;20061;-48
2023/07/15 03:29:24;;;;;;;4.85;3.17;;;;;;;22.71;44.92;99435.75;10329343;28;20041;-47
2023/07/15 03:34:25;;;;;;;5.50;3.15;;;;;;;22.70;45.40;99440.34;10337273;28;20061;-47
2023/07/15 03:39:27;;;;;;;5.32;3.60;;;;;;;22.68;45.29;99434.31;10333713;28;20066;-47
2023/07/15 03:44:29;;;;;;;3.10;2.70;;;;;;;22.67;45.24;99429.97;10336424;28;20042;-47
2023/07/15 03:49:30;;;;;;;3.55;3.05;;;;;;;22.67;45.38;99434.53;10333590;28;20057;-48
2023/07/15 03:54:32;;;;;;;3.22;2.70;;;;;;;22.63;45.28;99441.47;10330656;28;20088;-48
2023/07/15 03:59:33;;;;;;;2.88;2.58;;;;;;;22.58;45.80;99432.13;10330504;28;20073;-46
2023/07/15 04:04:35;;;;;;;3.65;2.95;;;;;;;22.63;45.59;99422.50;10337124;28;20061;-46
2023/07/15 04:09:36;;;;;;;4.28;3.10;;;;;;;22.60;46.45;99405.59;10327316;28;20192;-46
2023/07/15 04:14:38;;;;;;;2.97;2.67;;;;;;;22.59;46.01;99417.50;10334671;28;20522;-47
2023/07/15 04:19:39;;;;;;;4.38;2.75;;;;;;;22.58;46.37;99429.41;10333865;28;20134;-47
2023/07/15 04:24:41;;;;;;;2.90;2.63;;;;;;;22.58;46.49;99426.69;10327369;28;20377;-47
2023/07/15 04:29:42;;;;;;;2.90;2.47;;;;;;;22.58;47.37;99437.53;10331458;28;20137;-48
2023/07/15 04:34:49;;;;;;;6.20;2.78;;;;;;;22.61;46.68;99441.69;10334207;28;20054;-49
2023/07/15 04:39:51;;;;;;;4.78;3.15;;;;;;;22.61;46.68;99452.53;10326451;28;20045;-48
2023/07/15 04:44:52;;;;;;;4.50;2.63;;;;;;;22.62;47.95;99447.94;10329271;28;20412;-48
2023/07/15 04:49:54;;;;;;;3.00;2.70;;;;;;;22.57;47.74;99437.75;10326302;28;20050;-48
2023/07/15 04:54:55;;;;;;;4.03;2.83;;;;;;;22.60;47.13;99435.41;10325494;28;20053;-48
2023/07/15 04:59:56;;;;;;;3.33;2.40;;;;;;;22.64;48.35;99440.41;10329673;28;20134;-49
2023/07/15 05:04:58;;;;;;;4.30;2.75;;;;;;;22.66;47.50;99439.13;10321059;28;20069;-48
2023/07/15 05:09:59;;;;;;;5.57;2.67;;;;;;;22.69;47.81;99438.69;10324100;28;20046;-48
2023/07/15 05:15:01;;;;;;;9.95;3.33;;;;;;;22.69;48.49;99432.44;10336920;28;20053;-48
2023/07/15 05:20:03;;;;;;;6.97;3.15;;;;;;;22.65;48.69;99426.63;10321678;28;20710;-48
2023/07/15 05:25:05;;;;;;;6.77;3.37;;;;;;;22.73;48.65;99439.91;10330257;28;20050;-48
2023/07/15 05:30:10;;;;;;;15.15;3.83;;;;;;;22.82;48.34;99442.31;10323365;28;20529;-48
2023/07/15 05:35:12;;;;;;;13.10;3.08;;;;;;;22.89;48.19;99433.06;10329823;28;20057;-49
2023/07/15 05:40:16;;;;;;;12.18;3.95;;;;;;;22.73;48.16;99390.25;10325879;28;20142;-48
2023/07/15 05:45:18;;;;;;;9.75;3.63;;;;;;;23.06;48.83;99427.03;10326799;28;20175;-48
2023/07/15 05:50:19;;;;;;;6.97;3.20;;;;;;;23.18;48.57;99414.44;10332158;28;20486;-47
2023/07/15 05:55:20;;;;;;;6.10;2.92;;;;;;;23.32;48.63;99414.28;10338642;28;20132;-48
2023/07/15 06:00:22;;;;;;;5.38;2.90;;;;;;;23.45;48.11;99414.94;10336032;28;20111;-48
2023/07/15 06:05:24;;;;;;;4.90;2.75;;;;;;;23.63;47.86;99418.69;10336361;28;20050;-48
2023/07/15 06:10:25;;;;;;;3.92;3.00;;;;;;;23.76;47.61;99409.50;10326997;28;20137;-48
2023/07/15 06:15:27;;;;;;;3.97;2.50;;;;;;;23.79;47.87;99409.03;10328393;28;20085;-48
2023/07/15 06:20:28;;;;;;;5.10;2.45;;;;;;;23.85;47.90;99404.56;10330360;28;20046;-48
2023/07/15 06:25:30;;;;;;;2.90;2.33;;;;;;;23.83;47.58;99410.25;10333158;28;20057;-48
2023/07/15 06:30:32;;;;;;;3.78;2.58;;;;;;;23.86;48.75;99409.00;10324345;28;20049;-48
2023/07/15 06:35:33;;;;;;;4.43;2.60;;;;;;;23.99;47.97;99408.81;10328738;28;20655;-49
2023/07/15 06:40:34;;;;;;;5.40;3.17;;;;;;;24.17;47.42;99416.06;10324593;28;20050;-49
2023/07/15 06:45:36;;;;;;;6.38;2.50;;;;;;;24.29;47.13;99416.03;10304047;28;20054;-48
2023/07/15 06:50:37;;;;;;;4.00;2.50;;;;;;;24.40;46.85;99409.00;10311818;28;20153;-49
2023/07/15 06:55:39;;;;;;;4.43;2.30;;;;;;;24.54;46.88;99418.56;10311610;28;21074;-48
2023/07/15 07:00:41;;;;;;;5.72;2.65;;;;;;;24.69;46.41;99424.38;10309077;28;20052;-48
2023/07/15 07:05:42;;;;;;;4.63;2.58;;;;;;;24.85;46.81;99428.31;10314746;28;20050;-47
2023/07/15 07:10:44;;;;;;;4.78;2.75;;;;;;;25.10;45.69;99445.44;10309679;28;20061;-48
2023/07/15 07:15:50;;;;;;;4.53;3.28;;;;;;;25.05;46.45;99438.81;10310908;28;20053;-48
2023/07/15 07:20:59;;;;;;;3.72;2.67;;;;;;;25.07;46.79;99433.13;10315935;28;20054;-48
2023/07/15 07:26:00;;;;;;;6.53;2.80;;;;;;;25.11;46.13;99425.31;10317122;28;20841;-48
2023/07/15 07:31:02;;;;;;;5.35;2.60;;;;;;;25.11;46.22;99423.41;10315565;28;20636;-47
2023/07/15 07:36:04;;;;;;;6.13;2.95;;;;;;;25.30;46.41;99418.69;10314762;28;20046;-48
2023/07/15 07:41:11;;;;;;;5.33;2.13;;;;;;;25.34;45.71;99430.75;10310332;28;20139;-48
2023/07/15 07:46:13;;;;;;;6.85;2.60;;;;;;;25.39;45.94;99436.28;10311312;28;20532;-48
2023/07/15 07:51:15;;;;;;;7.73;3.23;;;;;;;25.65;45.85;99442.25;10313784;28;20046;-48
2023/07/15 07:56:17;;;;;;;3.05;2.60;;;;;;;25.66;45.89;99449.38;10312582;28;20077;-48
2023/07/15 08:01:18;;;;;;;4.68;2.53;;;;;;;25.70;45.46;99444.25;10311674;28;20135;-46
2023/07/15 08:06:21;;;;;;;3.90;2.67;;;;;;;25.72;45.63;99426.59;10311081;28;20153;-47
2023/07/15 08:11:22;;;;;;;;;;;;;;;25.87;45.55;99439.69;10314150;28;20514;-47
2023/07/15 08:16:32;;;;;;;2.78;2.33;;;;;;;25.96;44.99;99442.84;10312774;28;19932;-47
2023/07/15 08:21:34;;;;;;;3.08;2.10;;;;;;;26.08;44.15;99442.81;10321204;28;20061;-47
2023/07/15 08:26:36;;;;;;;3.25;1.85;;;;;;;26.28;43.92;99443.16;10321234;28;20045;-47
2023/07/15 08:31:37;;;;;;;4.65;1.80;;;;;;;26.41;43.02;99443.94;10318490;28;20045;-47
2023/07/15 08:36:39;;;;;;;2.95;1.90;;;;;;;26.54;42.69;99423.66;10318958;28;21430;-47
2023/07/15 08:41:41;;;;;;;2.22;2.00;;;;;;;26.76;42.06;99434.66;10320737;28;20748;-58
2023/07/15 08:46:43;;;;;;;2.93;1.60;;;;;;;27.21;40.90;99457.41;10324221;28;20050;-57
2023/07/15 08:51:45;;;;;;;3.03;1.60;;;;;;;27.45;40.15;99458.03;10317446;28;20069;-58
2023/07/15 08:56:47;;;;;;;2.85;1.50;;;;;;;27.74;39.10;99466.00;10321267;28;20053;-58
2023/07/15 09:01:48;;;;;;;4.57;2.20;;;;;;;27.63;39.74;99481.47;10317683;28;20137;-58
2023/07/15 09:06:50;;;;;;;2.90;1.70;;;;;;;27.86;39.97;99486.69;10312190;28;20049;-58
2023/07/15 09:11:51;;;;;;;3.83;2.20;;;;;;;27.82;40.52;99485.53;10317700;28;20062;-69
2023/07/15 09:16:55;;;;;;;2.43;1.97;;;;;;;27.80;40.77;99487.72;10316059;28;21329;-58
2023/07/15 09:22:05;;;;;;;3.35;1.95;;;;;;;27.73;41.23;99475.28;10318428;28;20045;-58
2023/07/15 09:27:07;;;;;;;5.00;2.15;;;;;;;27.62;41.93;99475.19;10321923;28;20057;-58
2023/07/15 09:32:09;;;;;;;2.65;1.80;;;;;;;27.50;41.70;99461.66;10325910;28;20061;-57
2023/07/15 09:37:26;;;;;;;3.43;2.07;;;;;;;27.42;41.56;99459.34;10320026;28;20517;-59
2023/07/15 09:42:27;;;;;;;2.33;1.98;;;;;;;27.33;41.99;99463.63;10319243;28;20046;-53
2023/07/15 09:47:29;;;;;;;4.20;2.17;;;;;;;27.28;42.21;99494.41;10318142;28;20056;-57
2023/07/15 09:52:31;;;;;;;3.30;2.03;;;;;;;27.23;42.83;99527.09;10314240;28;20052;-56
2023/07/15 09:57:32;;;;;;;4.97;2.45;;;;;;;27.13;44.69;99495.00;10320145;28;20599;-55
2023/07/15 10:02:41;;;;;;;4.07;2.60;;;;;;;26.99;45.89;99499.16;10317658;28;20225;-54
2023/07/15 10:07:42;;;;;;;3.58;2.40;;;;;;;26.89;45.79;99504.47;10317851;28;20148;-59
2023/07/15 10:12:45;;;;;;;5.65;2.38;;;;;;;26.86;45.72;99494.88;10324560;28;20061;-59
2023/07/15 10:17:49;;;;;;;3.22;2.63;;;;;;;26.83;45.99;99495.38;10317128;28;20054;-60
2023/07/15 10:22:51;;;;;;;2.72;2.33;;;;;;;26.80;45.17;99502.16;10313473;28;20696;-60
2023/07/15 10:28:10;;;;;;;3.47;2.45;;;;;;;26.77;45.29;99480.81;10322548;28;20518;-60
2023/07/15 10:33:22;;;;;;;3.45;2.25;;;;;;;26.74;44.93;99481.31;10319943;28;20771;-60
2023/07/15 10:38:28;;;;;;;3.35;2.22;;;;;;;26.74;45.49;99458.66;10320922;28;20632;-60
2023/07/15 10:43:33;;;;;;;5.43;2.53;;;;;;;26.77;45.41;99463.63;10321140;28;20061;-60
2023/07/15 10:48:35;;;;;;;4.30;3.15;;;;;;;26.82;44.58;99460.97;10321612;28;20533;-60
2023/07/15 10:53:36;;;;;;;8.37;3.00;;;;;;;26.86;44.85;99458.53;10323666;28;20810;-59
2023/07/15 10:58:40;;;;;;;4.70;2.60;;;;;;;26.92;44.96;99476.69;10322444;28;20046;-60
2023/07/15 11:03:42;;;;;;;5.05;2.17;;;;;;;26.98;44.83;99489.34;10320323;28;20798;-60
2023/07/15 11:08:44;;;;;;;3.13;2.33;;;;;;;26.97;45.38;99446.72;10324413;28;20064;-61
2023/07/15 11:13:47;;;;;;;3.80;2.20;;;;;;;27.02;45.45;99449.50;10325509;28;20049;-62
2023/07/15 11:18:48;;;;;;;;;;;;;;;27.05;46.77;99464.56;10321703;28;20285;-59
2023/07/15 11:23:50;;;;;;;4.43;2.70;;;;;;;27.00;46.65;99468.06;10317154;28;20003;-60
2023/07/15 11:28:51;;;;;;;6.50;3.00;;;;;;;27.03;47.40;99436.69;10322648;28;20057;-61
2023/07/15 11:33:53;;;;;;;4.55;2.80;;;;;;;26.95;47.47;99440.69;10324230;28;20108;-60
2023/07/15 11:38:55;;;;;;;5.00;2.50;;;;;;;26.92;47.30;99443.91;10326055;28;20050;-60
2023/07/15 11:43:57;;;;;;;5.53;2.70;;;;;;;26.87;47.27;99436.47;10322121;28;20088;-60
2023/07/15 11:48:59;;;;;;;5.45;2.85;;;;;;;26.80;48.10;99436.66;10322150;28;20372;-60
2023/07/15 11:54:02;;;;;;;3.27;2.83;;;;;;;26.79;48.50;99428.72;10329646;28;20553;-60
2023/07/15 11:59:08;;;;;;;3.95;2.80;;;;;;;26.72;48.08;99434.34;10326515;28;20043;-60
2023/07/15 12:04:14;;;;;;;4.63;3.53;;;;;;;26.75;49.26;99422.94;10324482;28;20064;-60
2023/07/15 12:09:17;;;;;;;5.65;3.20;;;;;;;26.74;49.48;99420.44;10324064;28;20063;-60
2023/07/15 12:14:18;;;;;;;6.00;3.55;;;;;;;26.72;49.25;99401.59;10319105;28;20686;-60
2023/07/15 12:19:23;;;;;;;4.00;3.03;;;;;;;26.67;49.78;99403.41;10321911;28;20132;-63
2023/07/15 12:24:24;;;;;;;5.85;3.35;;;;;;;26.71;50.06;99427.22;10319212;28;20540;-62
2023/07/15 12:29:26;;;;;;;4.28;2.80;;;;;;;26.70;50.58;99425.56;10326652;28;20053;-60
2023/07/15 12:34:27;;;;;;;4.55;3.00;;;;;;;26.72;49.82;99434.34;10323404;28;20054;-59
2023/07/15 12:39:29;;;;;;;3.80;2.30;;;;;;;26.81;49.81;99430.13;10322413;28;20108;-59
2023/07/15 12:44:30;;;;;;;4.32;3.30;;;;;;;26.89;49.80;99434.31;10327113;28;20479;-58
2023/07/15 12:49:32;;;;;;;2.92;2.45;;;;;;;26.91;49.70;99442.25;10321959;28;20163;-59
2023/07/15 12:54:34;;;;;;;4.15;2.63;;;;;;;26.81;49.48;99432.84;10322205;28;20489;-59
2023/07/15 12:59:37;;;;;;;5.90;3.25;;;;;;;26.82;49.72;99433.66;10317250;28;20837;-59
2023/07/15 13:04:39;;;;;;;4.85;3.50;;;;;;;26.88;49.97;99434.56;10319868;28;20057;-61
2023/07/15 13:09:40;;;;;;;4.70;2.80;;;;;;;26.81;50.26;99448.38;10312305;28;20065;-60
2023/07/15 13:14:45;;;;;;;6.90;2.78;;;;;;;26.75;50.69;99463.03;10315986;28;20045;-59
2023/07/15 13:19:46;;;;;;;5.15;2.97;;;;;;;26.54;53.24;99459.13;10313258;28;20424;-59
2023/07/15 13:24:49;;;;;;;6.30;3.42;;;;;;;26.28;56.03;99439.59;10320455;28;20054;-41
2023/07/15 13:29:51;;;;;;;5.88;2.85;;;;;;;26.18;56.73;99423.91;10326170;28;20042;-41
2023/07/15 13:34:52;;;;;;;3.40;2.72;;;;;;;26.04;57.16;99404.28;10327252;28;20523;-40
2023/07/15 13:39:54;;;;;;;3.00;2.70;;;;;;;26.01;56.19;99412.16;10319213;28;20136;-41
2023/07/15 13:44:55;;;;;;;3.50;2.92;;;;;;;25.95;58.20;99394.84;10322853;28;20058;-41
2023/07/15 13:49:58;;;;;;;2.95;2.63;;;;;;;25.99;58.53;99401.50;10319738;28;20405;-41
2023/07/15 13:55:00;;;;;;;;;;;;;;;25.84;60.80;99395.75;10323017;28;20543;-40
2023/07/15 14:00:02;;;;;;;4.32;3.42;;;;;;;25.74;60.38;99424.44;10310153;28;19964;-41
2023/07/15 14:05:04;;;;;;;3.83;3.30;;;;;;;25.56;63.18;99439.06;10326614;28;20076;-40
2023/07/15 14:10:06;;;;;;;3.30;2.97;;;;;;;25.35;63.53;99470.53;10313887;28;20046;-40
2023/07/15 14:15:08;;;;;;;4.60;4.07;;;;;;;25.26;65.59;99469.22;10317956;28;20057;-41
2023/07/15 14:20:10;;;;;;;3.87;3.43;;;;;;;25.08;66.39;99480.25;10317414;28;20054;-40
2023/07/15 14:25:11;;;;;;;6.40;4.40;;;;;;;25.01;65.71;99475.75;10316062;28;20049;-41
2023/07/15 14:30:13;;;;;;;4.50;3.55;;;;;;;25.06;66.85;99484.03;10317023;28;20064;-42
2023/07/15 14:35:14;;;;;;;7.07;6.35;;;;;;;25.05;66.75;99508.78;10319264;28;20060;-41
2023/07/15 14:40:16;;;;;;;6.25;4.95;;;;;;;24.95;67.62;99493.03;10313758;28;20054;-59
2023/07/15 14:45:17;;;;;;;4.90;3.58;;;;;;;24.94;67.69;99475.03;10313102;28;20623;-59
2023/07/15 14:50:19;;;;;;;4.28;3.80;;;;;;;24.89;67.47;99455.84;10308928;28;20160;-59
2023/07/15 14:55:23;;;;;;;6.07;3.80;;;;;;;24.82;69.32;99441.56;10306830;28;20160;-59
2023/07/15 15:00:26;;;;;;;5.13;3.60;;;;;;;24.67;69.57;99410.19;10309909;28;20057;-59
2023/07/15 15:05:27;;;;;;;5.30;4.03;;;;;;;24.75;71.58;99405.47;10305874;28;20923;-58
2023/07/15 15:10:29;;;;;;;8.13;4.35;;;;;;;24.67;73.98;99442.03;10303808;28;20151;-57
2023/07/15 15:15:31;;;;;;;8.20;5.75;;;;;;;24.49;75.39;99484.56;10308989;28;20111;-58
2023/07/15 15:20:32;;;;;;;8.25;4.78;;;;;;;24.38;77.40;99454.63;10313089;28;20062;-58
2023/07/15 15:25:34;;;;;;;6.70;5.10;;;;;;;24.27;78.29;99475.28;10310199;28;20045;-60
2023/07/15 15:30:36;;;;;;;5.15;4.70;;;;;;;24.14;77.58;99466.28;10312942;28;20060;-58
2023/07/15 15:35:37;;;;;;;7.78;5.38;;;;;;;24.09;79.28;99517.78;10296636;28;20080;-58
2023/07/15 15:40:39;;;;;;;7.57;5.88;;;;;;;23.99;79.58;99520.22;10309589;28;20142;-58
2023/07/15 15:45:41;;;;;;;5.90;5.28;;;;;;;23.96;78.98;99535.09;10307039;28;20041;-57
2023/07/15 15:50:42;;;;;;;7.40;5.45;;;;;;;24.00;81.28;99557.22;10289603;28;20133;-57
2023/07/15 15:55:44;;;;;;;9.40;5.60;;;;;;;23.97;80.40;99552.22;10314726;28;20085;-58
2023/07/15 16:00:45;;;;;;;7.28;5.70;;;;;;;23.96;82.15;99526.94;10291246;28;20061;-57
2023/07/15 16:05:47;;;;;;;5.72;5.15;;;;;;;23.93;81.15;99497.53;10288818;28;20085;-58
2023/07/15 16:10:48;;;;;;;6.22;4.75;;;;;;;24.08;80.34;99501.69;10294905;28;20049;-59
2023/07/15 16:15:50;;;;;;;6.70;4.93;;;;;;;24.11;79.99;99501.22;10291906;28;20050;-61
2023/07/15 16:20:51;;;;;;;5.82;4.50;;;;;;;24.12;78.52;99483.88;10297055;28;20105;-60
2023/07/15 16:25:56;;;;;;;7.50;5.20;;;;;;;24.17;79.53;99481.31;10294805;28;20057;-57
2023/07/15 16:30:57;;;;;;;7.40;4.30;;;;;;;24.31;79.00;99474.59;10298640;28;20053;-59
2023/07/15 16:35:59;;;;;;;6.18;5.38;;;;;;;24.42;79.30;99461.25;10304181;28;20056;-64
2023/07/15 16:41:01;;;;;;;8.45;5.45;;;;;;;24.40;78.36;99453.31;10302427;28;20064;-62
2023/07/15 16:46:02;;;;;;;7.35;5.57;;;;;;;24.41;79.50;99449.56;10302411;28;20060;-67
2023/07/15 16:51:04;;;;;;;6.82;5.43;;;;;;;24.45;80.33;99456.16;10299003;28;20075;-58
2023/07/15 16:56:05;;;;;;;6.88;5.07;;;;;;;24.43;80.49;99457.47;10306787;28;20884;-59
2023/07/15 17:01:07;;;;;;;8.13;7.32;;;;;;;24.41;81.71;99443.25;10304151;28;20976;-58
2023/07/15 17:06:08;;;;;;;5.72;4.75;;;;;;;24.34;80.78;99460.53;10299750;28;20060;-59
2023/07/15 17:11:10;;;;;;;5.88;4.38;;;;;;;24.34;78.55;99460.53;10298242;28;20424;-61
2023/07/15 17:16:11;;;;;;;7.15;4.00;;;;;;;24.40;78.71;99452.50;10299540;28;20446;-58
2023/07/15 17:21:13;;;;;;;4.60;3.90;;;;;;;24.39;76.75;99456.28;10299423;28;20107;-62
2023/07/15 17:26:15;;;;;;;5.68;4.75;;;;;;;24.41;77.50;99455.00;10297703;28;20713;-60
2023/07/15 17:31:16;;;;;;;5.88;5.15;;;;;;;24.31;80.43;99433.78;10294403;28;20554;-60
2023/07/15 17:36:19;;;;;;;6.43;5.40;;;;;;;24.25;80.24;99428.47;10303104;28;20054;-60
2023/07/15 17:41:21;;;;;;;6.38;5.53;;;;;;;24.29;81.26;99445.97;10301985;28;20053;-59
2023/07/15 17:46:23;;;;;;;6.83;5.83;;;;;;;24.23;80.83;99431.44;10301164;28;20073;-58
2023/07/15 17:51:25;;;;;;;6.13;5.55;;;;;;;24.16;81.90;99419.81;10302650;28;20288;-59
2023/07/15 17:56:26;;;;;;;6.25;5.28;;;;;;;24.19;81.73;99424.78;10303180;28;20058;-58
2023/07/15 18:01:28;;;;;;;5.10;4.57;;;;;;;24.14;81.81;99457.28;10302113;28;20088;-58
2023/07/15 18:06:31;;;;;;;7.35;6.50;;;;;;;24.14;80.41;99460.00;10293273;28;20709;-57
2023/07/15 18:11:32;;;;;;;7.10;5.15;;;;;;;24.02;80.20;99440.94;10303257;28;20057;-59
2023/07/15 18:16:34;;;;;;;4.55;4.10;;;;;;;24.08;79.83;99436.44;10302585;28;20057;-58
2023/07/15 18:21:36;;;;;;;5.78;4.93;;;;;;;23.94;80.25;99423.06;10305624;28;20061;-58
2023/07/15 18:26:37;;;;;;;5.10;4.60;;;;;;;24.06;80.05;99438.59;10303258;28;20058;-58
2023/07/15 18:31:39;;;;;;;5.55;4.93;;;;;;;23.96;78.85;99422.81;10300885;28;20140;-58
2023/07/15 18:36:40;;;;;;;6.35;4.63;;;;;;;23.97;79.40;99430.75;10302978;28;20535;-58
2023/07/15 18:41:43;;;;;;;5.32;4.80;;;;;;;23.90;79.59;99431.91;10302995;28;20133;-59
2023/07/15 18:46:45;;;;;;;4.35;3.60;;;;;;;23.92;79.25;99446.94;10301670;28;20107;-59
2023/07/15 18:51:46;;;;;;;4.45;4.05;;;;;;;23.94;78.63;99443.97;10301213;28;20096;-58
2023/07/15 18:56:48;;;;;;;3.90;3.60;;;;;;;23.91;78.84;99455.31;10304367;28;20427;-58
2023/07/15 19:01:50;;;;;;;4.40;3.58;;;;;;;23.89;78.14;99444.69;10301793;28;20500;-56
2023/07/15 19:06:51;;;;;;;4.15;3.72;;;;;;;23.88;78.59;99453.88;10302095;28;21054;-59
2023/07/15 19:11:53;;;;;;;3.97;3.55;;;;;;;23.86;78.53;99450.56;10299163;28;20049;-58
2023/07/15 19:16:54;;;;;;;3.70;3.40;;;;;;;23.80;78.59;99470.47;10318534;28;21173;-58
2023/07/15 19:21:56;;;;;;;4.55;4.00;;;;;;;23.78;78.00;99456.28;10300984;28;20046;-58
2023/07/15 19:26:58;;;;;;;4.63;3.90;;;;;;;23.73;79.20;99465.13;10297970;28;20176;-57
2023/07/15 19:31:59;;;;;;;4.20;3.80;;;;;;;23.67;78.31;99470.66;10298520;28;20184;-59
2023/07/15 19:37:00;;;;;;;5.05;3.40;;;;;;;23.71;79.25;99505.28;10282246;28;20398;-58
2023/07/15 19:42:02;;;;;;;4.05;3.67;;;;;;;23.70;78.83;99519.91;10299636;28;20049;-59
2023/07/15 19:47:04;;;;;;;4.45;3.97;;;;;;;23.63;78.59;99525.44;10298623;28;20061;-58
2023/07/15 19:52:06;;;;;;;7.97;5.05;;;;;;;23.67;79.87;99565.72;10300731;28;20344;-58
2023/07/15 19:57:08;;;;;;;6.78;4.95;;;;;;;23.59;83.63;99573.13;10302448;28;20069;-56
2023/07/15 20:02:09;;;;;;;4.93;3.95;;;;;;;23.58;82.35;99549.72;10299834;28;20731;-58
2023/07/15 20:07:11;;;;;;;6.00;4.60;;;;;;;23.55;83.80;99593.63;10303035;28;20715;-57
2023/07/15 20:12:12;;;;;;;5.40;4.90;;;;;;;23.44;86.17;99606.06;10308735;28;20990;-58
2023/07/15 20:17:14;;;;;;;5.13;4.50;;;;;;;23.40;87.16;99598.59;10308237;28;20528;-57
2023/07/15 20:22:16;;;;;;;5.18;4.50;;;;;;;23.38;87.56;99560.81;10311727;28;20046;-57
2023/07/15 20:27:18;;;;;;;5.50;4.77;;;;;;;23.34;87.11;99528.91;10310255;28;20054;-57
2023/07/15 20:32:19;;;;;;;4.00;3.63;;;;;;;23.25;87.35;99550.09;10310130;28;25205;-59
2023/07/15 20:37:21;;;;;;;6.30;5.70;;;;;;;23.27;87.19;99575.97;10306272;28;20049;-57
2023/07/15 20:42:23;;;;;;;5.38;4.15;;;;;;;23.17;88.97;99564.78;10307881;28;20048;-59
2023/07/15 20:47:24;;;;;;;5.90;5.35;;;;;;;23.16;88.13;99578.56;10307891;28;20057;-58
2023/07/15 20:52:26;;;;;;;4.63;4.13;;;;;;;23.06;88.42;99569.03;10307885;28;20050;-59
2023/07/15 20:57:27;;;;;;;3.67;3.38;;;;;;;22.96;88.93;99579.53;10307171;28;20061;-58
2023/07/15 21:02:29;;;;;;;3.60;2.95;;;;;;;23.00;88.14;99541.91;10307736;28;20127;-58
2023/07/15 21:07:31;;;;;;;4.55;2.83;;;;;;;22.99;88.39;99551.97;10308750;28;20791;-58
2023/07/15 21:12:32;;;;;;;3.72;2.92;;;;;;;22.89;88.25;99568.72;10307333;28;20054;-57
2023/07/15 21:17:34;;;;;;;4.95;3.20;;;;;;;22.89;89.46;99576.88;10307416;28;20305;-59
2023/07/15 21:22:35;;;;;;;3.13;2.90;;;;;;;22.90;88.90;99588.56;10310208;28;20919;-59
2023/07/15 21:27:37;;;;;;;3.85;3.17;;;;;;;22.82;88.48;99583.41;10307242;28;20435;-60
2023/07/15 21:32:38;;;;;;;5.95;3.60;;;;;;;;;;10318392;28;20060;-58
2023/07/15 21:37:40;;;;;;;5.35;2.80;;;;;;;22.64;90.03;99604.00;10321301;28;20057;-59
2023/07/15 21:42:41;;;;;;;3.83;3.20;;;;;;;22.62;90.35;99621.53;10318661;28;20050;-59
2023/07/15 21:47:43;;;;;;;3.38;3.08;;;;;;;22.66;90.88;99671.56;10311246;28;20130;-60
2023/07/15 21:52:44;;;;;;;4.30;3.13;;;;;;;22.60;91.55;99667.84;10317472;28;20049;-59
2023/07/15 21:57:46;;;;;;;3.65;3.17;;;;;;;22.55;91.83;99649.50;10317522;28;20049;-59
2023/07/15 22:02:47;;;;;;;4.70;2.75;;;;;;;22.56;90.34;99686.44;10307915;28;20837;-59
2023/07/15 22:07:49;;;;;;;5.32;2.67;;;;;;;22.55;89.63;99684.78;10309862;28;20673;-59
2023/07/15 22:12:50;;;;;;;2.85;2.55;;;;;;;22.48;88.14;99664.16;10310003;28;20065;-58
2023/07/15 22:17:52;;;;;;;3.25;2.28;;;;;;;22.48;87.81;99648.72;10311293;28;20482;-58
2023/07/15 22:22:53;;;;;;;3.20;2.17;;;;;;;22.45;87.01;99651.84;10315546;28;20046;-58
2023/07/15 22:27:55;;;;;;;3.67;2.90;;;;;;;22.47;87.32;99662.47;10317350;28;20057;-58
2023/07/15 22:32:56;;;;;;;7.13;3.22;;;;;;;22.27;88.91;99700.50;10316819;28;20042;-59
2023/07/15 22:37:58;;;;;;;3.95;3.30;;;;;;;22.20;89.55;99714.91;10314275;28;20201;-59
2023/07/15 22:43:00;;;;;;;3.80;3.05;;;;;;;22.15;90.18;99720.13;10313410;28;20077;-58
2023/07/15 22:48:01;;;;;;;3.55;2.60;;;;;;;21.91;90.38;99735.19;10312284;28;20061;-59
2023/07/15 22:53:03;;;;;;;3.50;2.78;;;;;;;21.93;92.28;99770.19;10312812;28;20711;-58
2023/07/15 22:58:04;;;;;;;2.88;2.42;;;;;;;21.94;92.64;99772.69;10311279;28;20053;-58
2023/07/15 23:03:05;;;;;;;3.15;2.30;;;;;;;21.98;92.26;99756.84;10321129;28;20948;-57
2023/07/15 23:08:07;;;;;;;3.65;2.47;;;;;;;21.84;92.51;99732.50;10316282;28;20048;-58
2023/07/15 23:13:09;;;;;;;2.55;2.00;;;;;;;21.78;92.63;99710.81;10319500;28;20094;-59
2023/07/15 23:18:10;;;;;;;2.53;2.08;;;;;;;21.78;92.81;99727.06;10319166;28;20432;-58
2023/07/15 23:23:12;;;;;;;2.97;1.75;;;;;;;21.78;91.59;99722.47;10314499;28;20123;-58
2023/07/15 23:28:18;;;;;;;3.17;1.70;;;;;;;21.81;91.39;99697.69;10312884;28;21870;-58